AXM110 LIEO-LIRF
Flight info
| Callsign | AXM110 |
|---|---|
| Flight time | 0h 39m |
| Altitude | 24000 |
| Route | BATOX6K BATOX DCT TINTO DCT VALMA VALMA3A |
| Aircraft | A333/H-V/N |
Departure
| Time | 2026-05-04 19:31 |
|---|---|
| Airport | Olbia Costa Smeralda Airport (LIEO) |
Arrival
| Time | 2026-05-04 20:11 |
|---|---|
| Airport | Rome–Fiumicino Leonardo da Vinci International Airport (LIRF) |
| Time | Latitude | Longitude | Altitude | Speed | Heading |
|---|---|---|---|---|---|
| 2026-05-04 19:12 | 40.90234 | 9.51668 | 53 ft | 0 kts | 326° |
| 2026-05-04 19:22 | 40.90230 | 9.51671 | 53 ft | 3 kts | 326° |
| 2026-05-04 19:23 | 40.90212 | 9.51688 | 53 ft | 1 kts | 326° |
| 2026-05-04 19:23 | 40.90202 | 9.51697 | 53 ft | 1 kts | 321° |
| 2026-05-04 19:23 | 40.90195 | 9.51705 | 53 ft | 1 kts | 309° |
| 2026-05-04 19:23 | 40.90189 | 9.51716 | 53 ft | 1 kts | 291° |
| 2026-05-04 19:24 | 40.90187 | 9.51726 | 53 ft | 1 kts | 276° |
| 2026-05-04 19:24 | 40.90186 | 9.51736 | 53 ft | 1 kts | 262° |
| 2026-05-04 19:24 | 40.90188 | 9.51746 | 53 ft | 1 kts | 247° |
| 2026-05-04 19:24 | 40.90191 | 9.51755 | 53 ft | 0 kts | 238° |
| 2026-05-04 19:25 | 40.90193 | 9.51759 | 53 ft | 0 kts | 236° |
| 2026-05-04 19:26 | 40.90190 | 9.51754 | 53 ft | 2 kts | 236° |
| 2026-05-04 19:27 | 40.90174 | 9.51722 | 53 ft | 5 kts | 236° |
| 2026-05-04 19:27 | 40.90145 | 9.51666 | 53 ft | 8 kts | 236° |
| 2026-05-04 19:27 | 40.90103 | 9.51584 | 53 ft | 12 kts | 236° |
| 2026-05-04 19:27 | 40.90058 | 9.51496 | 53 ft | 0 kts | 235° |
| 2026-05-04 19:28 | 40.90022 | 9.51478 | 53 ft | 7 kts | 175° |
| 2026-05-04 19:28 | 40.89938 | 9.51501 | 53 ft | 15 kts | 207° |
| 2026-05-04 19:28 | 40.89874 | 9.51382 | 53 ft | 15 kts | 237° |
| 2026-05-04 19:28 | 40.89812 | 9.51260 | 53 ft | 15 kts | 237° |
| 2026-05-04 19:29 | 40.89752 | 9.51139 | 53 ft | 15 kts | 237° |
| 2026-05-04 19:29 | 40.89684 | 9.51010 | 53 ft | 18 kts | 235° |
| 2026-05-04 19:29 | 40.89596 | 9.50848 | 53 ft | 24 kts | 234° |
| 2026-05-04 19:29 | 40.89485 | 9.50642 | 53 ft | 28 kts | 235° |
| 2026-05-04 19:30 | 40.89384 | 9.50467 | 53 ft | 16 kts | 215° |
| 2026-05-04 19:30 | 40.89283 | 9.50514 | 53 ft | 20 kts | 112° |
| 2026-05-04 19:30 | 40.89315 | 9.50701 | 53 ft | 23 kts | 57° |
| 2026-05-04 19:30 | 40.89428 | 9.50927 | 53 ft | 45 kts | 56° |
| 2026-05-04 19:31 | 40.89756 | 9.51551 | 53 ft | 115 kts | 55° |
| 2026-05-04 19:31 | 40.90339 | 9.52665 | 66 ft | 170 kts | 56° |
| 2026-05-04 19:31 | 40.91009 | 9.53952 | 761 ft | 167 kts | 56° |
| 2026-05-04 19:31 | 40.91689 | 9.55240 | 1418 ft | 174 kts | 57° |
| 2026-05-04 19:32 | 40.92414 | 9.56599 | 2019 ft | 185 kts | 56° |
| 2026-05-04 19:32 | 40.93167 | 9.58009 | 2599 ft | 187 kts | 56° |
| 2026-05-04 19:32 | 40.93938 | 9.59471 | 2964 ft | 196 kts | 56° |
| 2026-05-04 19:32 | 40.94787 | 9.61053 | 3306 ft | 210 kts | 54° |
| 2026-05-04 19:33 | 40.95702 | 9.62769 | 3575 ft | 234 kts | 54° |
| 2026-05-04 19:33 | 40.96690 | 9.64629 | 4034 ft | 252 kts | 54° |
| 2026-05-04 19:33 | 40.97734 | 9.66597 | 4723 ft | 260 kts | 54° |
| 2026-05-04 19:33 | 40.98830 | 9.68593 | 5475 ft | 264 kts | 47° |
| 2026-05-04 19:34 | 40.99949 | 9.70701 | 5926 ft | 283 kts | 62° |
| 2026-05-04 19:34 | 41.00964 | 9.73074 | 6570 ft | 294 kts | 57° |
| 2026-05-04 19:34 | 41.02077 | 9.75439 | 7406 ft | 296 kts | 57° |
| 2026-05-04 19:34 | 41.03217 | 9.77823 | 8206 ft | 300 kts | 57° |
| 2026-05-04 19:35 | 41.04382 | 9.80252 | 8996 ft | 304 kts | 57° |
| 2026-05-04 19:35 | 41.05558 | 9.82701 | 9732 ft | 310 kts | 57° |
| 2026-05-04 19:35 | 41.06748 | 9.85181 | 10487 ft | 315 kts | 58° |
| 2026-05-04 19:35 | 41.07984 | 9.87761 | 10909 ft | 332 kts | 58° |
| 2026-05-04 19:36 | 41.09300 | 9.90509 | 11269 ft | 351 kts | 58° |
| 2026-05-04 19:36 | 41.10653 | 9.93337 | 11674 ft | 367 kts | 58° |
| 2026-05-04 19:36 | 41.11822 | 9.95782 | 12290 ft | 370 kts | 58° |
| 2026-05-04 19:36 | 41.13209 | 9.98685 | 13051 ft | 372 kts | 59° |
| 2026-05-04 19:37 | 41.14637 | 10.01676 | 13770 ft | 376 kts | 59° |
| 2026-05-04 19:37 | 41.16072 | 10.04691 | 14403 ft | 381 kts | 59° |
| 2026-05-04 19:37 | 41.17526 | 10.07741 | 15088 ft | 384 kts | 58° |
| 2026-05-04 19:37 | 41.19006 | 10.10848 | 15756 ft | 388 kts | 58° |
| 2026-05-04 19:38 | 41.20496 | 10.13984 | 16361 ft | 393 kts | 58° |
| 2026-05-04 19:38 | 41.21773 | 10.17242 | 16971 ft | 394 kts | 70° |
| 2026-05-04 19:38 | 41.22798 | 10.20748 | 17616 ft | 396 kts | 70° |
| 2026-05-04 19:38 | 41.23833 | 10.24263 | 18223 ft | 400 kts | 69° |
| 2026-05-04 19:39 | 41.24876 | 10.27803 | 18734 ft | 405 kts | 69° |
| 2026-05-04 19:39 | 41.25925 | 10.31365 | 19244 ft | 411 kts | 69° |
| 2026-05-04 19:39 | 41.26997 | 10.35013 | 19793 ft | 415 kts | 69° |
| 2026-05-04 19:39 | 41.28088 | 10.38724 | 20309 ft | 419 kts | 68° |
| 2026-05-04 19:40 | 41.29190 | 10.42477 | 20805 ft | 424 kts | 68° |
| 2026-05-04 19:40 | 41.30284 | 10.46213 | 21322 ft | 427 kts | 68° |
| 2026-05-04 19:40 | 41.31403 | 10.50036 | 21804 ft | 431 kts | 68° |
| 2026-05-04 19:40 | 41.32516 | 10.53852 | 22277 ft | 435 kts | 68° |
| 2026-05-04 19:41 | 41.33649 | 10.57728 | 22734 ft | 439 kts | 68° |
| 2026-05-04 19:41 | 41.34782 | 10.61618 | 23177 ft | 443 kts | 68° |
| 2026-05-04 19:41 | 41.35933 | 10.65582 | 23696 ft | 445 kts | 68° |
| 2026-05-04 19:41 | 41.37048 | 10.69418 | 24134 ft | 447 kts | 68° |
| 2026-05-04 19:42 | 41.38167 | 10.73278 | 24039 ft | 448 kts | 68° |
| 2026-05-04 19:42 | 41.39296 | 10.77173 | 24076 ft | 442 kts | 68° |
| 2026-05-04 19:42 | 41.40437 | 10.81128 | 24101 ft | 442 kts | 68° |
| 2026-05-04 19:42 | 41.41554 | 10.84994 | 24091 ft | 441 kts | 68° |
| 2026-05-04 19:43 | 41.42681 | 10.88910 | 24096 ft | 441 kts | 68° |
| 2026-05-04 19:43 | 41.43813 | 10.92836 | 24097 ft | 442 kts | 68° |
| 2026-05-04 19:43 | 41.44935 | 10.96746 | 24097 ft | 440 kts | 68° |
| 2026-05-04 19:43 | 41.46066 | 11.00687 | 24099 ft | 439 kts | 68° |
| 2026-05-04 19:44 | 41.47162 | 11.04512 | 24098 ft | 439 kts | 68° |
| 2026-05-04 19:44 | 41.48279 | 11.08436 | 24105 ft | 438 kts | 68° |
| 2026-05-04 19:44 | 41.49377 | 11.12334 | 24103 ft | 438 kts | 68° |
| 2026-05-04 19:44 | 41.50463 | 11.16191 | 24107 ft | 439 kts | 68° |
| 2026-05-04 19:45 | 41.51546 | 11.20042 | 24105 ft | 438 kts | 68° |
| 2026-05-04 19:45 | 41.52628 | 11.23899 | 24108 ft | 437 kts | 68° |
| 2026-05-04 19:45 | 41.53730 | 11.27831 | 24106 ft | 437 kts | 68° |
| 2026-05-04 19:45 | 41.54808 | 11.31681 | 24110 ft | 438 kts | 68° |
| 2026-05-04 19:46 | 41.55892 | 11.35559 | 24106 ft | 438 kts | 68° |
| 2026-05-04 19:46 | 41.56990 | 11.39496 | 24112 ft | 438 kts | 68° |
| 2026-05-04 19:46 | 41.58069 | 11.43355 | 23822 ft | 438 kts | 68° |
| 2026-05-04 19:46 | 41.59164 | 11.47216 | 22945 ft | 443 kts | 68° |
| 2026-05-04 19:47 | 41.60255 | 11.51089 | 22880 ft | 426 kts | 68° |
| 2026-05-04 19:47 | 41.61285 | 11.54741 | 22859 ft | 410 kts | 68° |
| 2026-05-04 19:47 | 41.62315 | 11.58398 | 22370 ft | 407 kts | 68° |
| 2026-05-04 19:47 | 41.63344 | 11.62053 | 21857 ft | 405 kts | 68° |
| 2026-05-04 19:48 | 41.64343 | 11.65622 | 21413 ft | 402 kts | 69° |
| 2026-05-04 19:48 | 41.65300 | 11.69037 | 20970 ft | 399 kts | 69° |
| 2026-05-04 19:48 | 41.66260 | 11.72465 | 20509 ft | 396 kts | 69° |
| 2026-05-04 19:48 | 41.67244 | 11.75981 | 20038 ft | 393 kts | 69° |
| 2026-05-04 19:49 | 41.68218 | 11.79476 | 19542 ft | 391 kts | 69° |
| 2026-05-04 19:49 | 41.69174 | 11.82904 | 19083 ft | 388 kts | 69° |
| 2026-05-04 19:49 | 41.70138 | 11.86365 | 18889 ft | 376 kts | 70° |
| 2026-05-04 19:49 | 41.71055 | 11.89671 | 18840 ft | 362 kts | 69° |
| 2026-05-04 19:50 | 41.71928 | 11.92824 | 18451 ft | 360 kts | 70° |
| 2026-05-04 19:50 | 41.72860 | 11.96036 | 18017 ft | 358 kts | 63° |
| 2026-05-04 19:50 | 41.74371 | 11.98752 | 17598 ft | 353 kts | 39° |
| 2026-05-04 19:50 | 41.76476 | 12.00413 | 17476 ft | 334 kts | 14° |
| 2026-05-04 19:51 | 41.78741 | 12.01009 | 17446 ft | 314 kts | 357° |
| 2026-05-04 19:51 | 41.80878 | 12.00587 | 17140 ft | 304 kts | 340° |
| 2026-05-04 19:51 | 41.82980 | 11.99775 | 16821 ft | 302 kts | 339° |
| 2026-05-04 19:51 | 41.85028 | 11.98930 | 16491 ft | 301 kts | 339° |
| 2026-05-04 19:52 | 41.87040 | 11.98085 | 16183 ft | 299 kts | 339° |
| 2026-05-04 19:52 | 41.89070 | 11.97227 | 15873 ft | 298 kts | 339° |
| 2026-05-04 19:52 | 41.91101 | 11.96367 | 15563 ft | 296 kts | 339° |
| 2026-05-04 19:52 | 41.93090 | 11.95524 | 15205 ft | 293 kts | 339° |
| 2026-05-04 19:53 | 41.95098 | 11.94672 | 14691 ft | 292 kts | 339° |
| 2026-05-04 19:53 | 41.97065 | 11.93838 | 14228 ft | 289 kts | 339° |
| 2026-05-04 19:53 | 41.99004 | 11.93015 | 13751 ft | 287 kts | 340° |
| 2026-05-04 19:53 | 42.00906 | 11.92207 | 13277 ft | 285 kts | 340° |
| 2026-05-04 19:54 | 42.02833 | 11.91386 | 12776 ft | 288 kts | 340° |
| 2026-05-04 19:54 | 42.04754 | 11.90568 | 12112 ft | 287 kts | 340° |
| 2026-05-04 19:54 | 42.06671 | 11.89753 | 11478 ft | 284 kts | 341° |
| 2026-05-04 19:54 | 42.08567 | 11.88945 | 10858 ft | 281 kts | 341° |
| 2026-05-04 19:55 | 42.10427 | 11.88151 | 10239 ft | 279 kts | 341° |
| 2026-05-04 19:55 | 42.12155 | 11.87413 | 9656 ft | 278 kts | 341° |
| 2026-05-04 19:55 | 42.13940 | 11.86652 | 9096 ft | 275 kts | 341° |
| 2026-05-04 19:55 | 42.15676 | 11.85910 | 8894 ft | 264 kts | 341° |
| 2026-05-04 19:56 | 42.17334 | 11.85201 | 8868 ft | 253 kts | 341° |
| 2026-05-04 19:56 | 42.18991 | 11.84493 | 8875 ft | 250 kts | 341° |
| 2026-05-04 19:56 | 42.20697 | 11.83763 | 8875 ft | 247 kts | 341° |
| 2026-05-04 19:56 | 42.22365 | 11.83048 | 8889 ft | 251 kts | 341° |
| 2026-05-04 19:57 | 42.24037 | 11.82331 | 8879 ft | 248 kts | 341° |
| 2026-05-04 19:57 | 42.25705 | 11.81616 | 8878 ft | 248 kts | 341° |
| 2026-05-04 19:57 | 42.27386 | 11.80895 | 8884 ft | 251 kts | 341° |
| 2026-05-04 19:57 | 42.29062 | 11.80178 | 8870 ft | 247 kts | 342° |
| 2026-05-04 19:58 | 42.30804 | 11.80016 | 8767 ft | 253 kts | 12° |
| 2026-05-04 19:58 | 42.32392 | 11.81043 | 8568 ft | 253 kts | 43° |
| 2026-05-04 19:58 | 42.33405 | 11.83012 | 8171 ft | 255 kts | 75° |
| 2026-05-04 19:58 | 42.33834 | 11.85314 | 7889 ft | 253 kts | 78° |
| 2026-05-04 19:59 | 42.34305 | 11.87642 | 7622 ft | 253 kts | 77° |
| 2026-05-04 19:59 | 42.34782 | 11.89943 | 7381 ft | 250 kts | 83° |
| 2026-05-04 19:59 | 42.34669 | 11.92195 | 7210 ft | 237 kts | 114° |
| 2026-05-04 19:59 | 42.33736 | 11.93981 | 6932 ft | 229 kts | 146° |
| 2026-05-04 20:00 | 42.32326 | 11.94932 | 6699 ft | 224 kts | 160° |
| 2026-05-04 20:00 | 42.30867 | 11.95691 | 6481 ft | 223 kts | 161° |
| 2026-05-04 20:00 | 42.29376 | 11.96414 | 6269 ft | 221 kts | 162° |
| 2026-05-04 20:00 | 42.27929 | 11.97082 | 6034 ft | 221 kts | 162° |
| 2026-05-04 20:01 | 42.26457 | 11.97742 | 5806 ft | 220 kts | 163° |
| 2026-05-04 20:01 | 42.24977 | 11.98393 | 5555 ft | 220 kts | 163° |
| 2026-05-04 20:01 | 42.23518 | 11.99031 | 5341 ft | 219 kts | 163° |
| 2026-05-04 20:01 | 42.22054 | 11.99663 | 5095 ft | 220 kts | 163° |
| 2026-05-04 20:02 | 42.20583 | 12.00292 | 4876 ft | 219 kts | 163° |
| 2026-05-04 20:02 | 42.19124 | 12.00915 | 4661 ft | 218 kts | 163° |
| 2026-05-04 20:02 | 42.17675 | 12.01534 | 4435 ft | 217 kts | 163° |
| 2026-05-04 20:02 | 42.16216 | 12.02156 | 4232 ft | 216 kts | 163° |
| 2026-05-04 20:03 | 42.14760 | 12.02777 | 4015 ft | 219 kts | 163° |
| 2026-05-04 20:03 | 42.13312 | 12.03395 | 4005 ft | 217 kts | 163° |
| 2026-05-04 20:03 | 42.11879 | 12.04125 | 3989 ft | 218 kts | 148° |
| 2026-05-04 20:03 | 42.10795 | 12.05534 | 4022 ft | 219 kts | 133° |
| 2026-05-04 20:04 | 42.09748 | 12.07075 | 4000 ft | 218 kts | 135° |
| 2026-05-04 20:04 | 42.08752 | 12.08535 | 3975 ft | 205 kts | 135° |
| 2026-05-04 20:04 | 42.07774 | 12.09963 | 3996 ft | 202 kts | 135° |
| 2026-05-04 20:04 | 42.06823 | 12.11353 | 4004 ft | 200 kts | 134° |
| 2026-05-04 20:05 | 42.05735 | 12.12452 | 3959 ft | 185 kts | 162° |
| 2026-05-04 20:05 | 42.04528 | 12.12968 | 4023 ft | 181 kts | 162° |
| 2026-05-04 20:05 | 42.03323 | 12.13497 | 4012 ft | 178 kts | 163° |
| 2026-05-04 20:05 | 42.02176 | 12.13991 | 4100 ft | 170 kts | 163° |
| 2026-05-04 20:06 | 42.01008 | 12.14488 | 3925 ft | 175 kts | 162° |
| 2026-05-04 20:06 | 41.99844 | 12.14982 | 3716 ft | 174 kts | 162° |
| 2026-05-04 20:06 | 41.98667 | 12.15478 | 3499 ft | 173 kts | 162° |
| 2026-05-04 20:06 | 41.97523 | 12.15959 | 3276 ft | 173 kts | 162° |
| 2026-05-04 20:07 | 41.96368 | 12.16445 | 3051 ft | 172 kts | 162° |
| 2026-05-04 20:07 | 41.95235 | 12.16919 | 2814 ft | 167 kts | 162° |
| 2026-05-04 20:07 | 41.94111 | 12.17389 | 2592 ft | 167 kts | 163° |
| 2026-05-04 20:07 | 41.92992 | 12.17857 | 2369 ft | 166 kts | 162° |
| 2026-05-04 20:08 | 41.91919 | 12.18306 | 2134 ft | 156 kts | 162° |
| 2026-05-04 20:08 | 41.90883 | 12.18740 | 1964 ft | 152 kts | 162° |
| 2026-05-04 20:08 | 41.89915 | 12.19145 | 1744 ft | 141 kts | 162° |
| 2026-05-04 20:08 | 41.88987 | 12.19532 | 1545 ft | 138 kts | 163° |
| 2026-05-04 20:09 | 41.88059 | 12.19919 | 1363 ft | 138 kts | 162° |
| 2026-05-04 20:09 | 41.87122 | 12.20313 | 1179 ft | 138 kts | 162° |
| 2026-05-04 20:09 | 41.86191 | 12.20702 | 993 ft | 139 kts | 162° |
| 2026-05-04 20:09 | 41.85264 | 12.21091 | 809 ft | 140 kts | 162° |
| 2026-05-04 20:10 | 41.84336 | 12.21479 | 623 ft | 140 kts | 162° |
| 2026-05-04 20:10 | 41.83387 | 12.21873 | 432 ft | 139 kts | 162° |
| 2026-05-04 20:10 | 41.82441 | 12.22262 | 231 ft | 140 kts | 163° |
| 2026-05-04 20:10 | 41.81513 | 12.22653 | 52 ft | 140 kts | 164° |
| 2026-05-04 20:11 | 41.80666 | 12.23008 | 21 ft | 101 kts | 163° |
| 2026-05-04 20:11 | 41.80170 | 12.23213 | 18 ft | 48 kts | 162° |
| 2026-05-04 20:11 | 41.79863 | 12.23342 | 16 ft | 32 kts | 162° |
| 2026-05-04 20:11 | 41.79651 | 12.23437 | 16 ft | 31 kts | 156° |
| 2026-05-04 20:12 | 41.79471 | 12.23595 | 16 ft | 30 kts | 134° |
| 2026-05-04 20:12 | 41.79383 | 12.23719 | 16 ft | 0 kts | 134° |
| 2026-05-04 20:14 | 41.79372 | 12.23734 | 16 ft | 5 kts | 134° |
| 2026-05-04 20:14 | 41.79330 | 12.23800 | 16 ft | 12 kts | 120° |
| 2026-05-04 20:14 | 41.79327 | 12.23938 | 16 ft | 10 kts | 73° |
| 2026-05-04 20:15 | 41.79348 | 12.24011 | 16 ft | 8 kts | 49° |
| 2026-05-04 20:15 | 41.79419 | 12.24002 | 16 ft | 12 kts | 330° |
| 2026-05-04 20:15 | 41.79489 | 12.23966 | 16 ft | 10 kts | 341° |
| 2026-05-04 20:15 | 41.79548 | 12.23963 | 16 ft | 5 kts | 33° |
| 2026-05-04 20:16 | 41.79578 | 12.24022 | 16 ft | 3 kts | 65° |
| 2026-05-04 20:16 | 41.79586 | 12.24044 | 16 ft | 0 kts | 67° |
| 2026-05-04 20:16 | 41.79588 | 12.24051 | 16 ft | 0 kts | 68° |